sensor_id;sensor_type;location;lat;lon;timestamp;P1;durP1;ratioP1;P2;durP2;ratioP2
12350;SDS011;6240;51.538;7.696;2023-02-28T00:01:04;4.90;;;3.03;;
12350;SDS011;6240;51.538;7.696;2023-02-28T00:03:31;4.40;;;2.80;;
12350;SDS011;6240;51.538;7.696;2023-02-28T00:06:00;4.53;;;2.90;;
12350;SDS011;6240;51.538;7.696;2023-02-28T00:08:27;4.27;;;2.70;;
12350;SDS011;6240;51.538;7.696;2023-02-28T00:10:54;3.80;;;3.20;;
12350;SDS011;6240;51.538;7.696;2023-02-28T00:13:23;6.17;;;3.30;;
12350;SDS011;6240;51.538;7.696;2023-02-28T00:15:58;3.47;;;2.60;;
12350;SDS011;6240;51.538;7.696;2023-02-28T00:18:25;6.17;;;3.10;;
12350;SDS011;6240;51.538;7.696;2023-02-28T00:20:52;5.83;;;3.30;;
12350;SDS011;6240;51.538;7.696;2023-02-28T00:23:19;5.37;;;3.23;;
12350;SDS011;6240;51.538;7.696;2023-02-28T00:25:46;5.63;;;3.03;;
12350;SDS011;6240;51.538;7.696;2023-02-28T00:28:14;5.17;;;3.10;;
12350;SDS011;6240;51.538;7.696;2023-02-28T00:30:42;4.00;;;2.70;;
12350;SDS011;6240;51.538;7.696;2023-02-28T00:33:10;4.07;;;2.60;;
12350;SDS011;6240;51.538;7.696;2023-02-28T00:35:37;3.10;;;2.70;;
12350;SDS011;6240;51.538;7.696;2023-02-28T00:38:04;4.73;;;3.13;;
12350;SDS011;6240;51.538;7.696;2023-02-28T00:40:32;4.27;;;3.27;;
12350;SDS011;6240;51.538;7.696;2023-02-28T00:42:59;3.40;;;2.57;;
12350;SDS011;6240;51.538;7.696;2023-02-28T00:45:26;3.50;;;2.67;;
12350;SDS011;6240;51.538;7.696;2023-02-28T00:47:55;3.80;;;3.00;;
12350;SDS011;6240;51.538;7.696;2023-02-28T00:50:22;5.50;;;2.90;;
12350;SDS011;6240;51.538;7.696;2023-02-28T00:52:49;5.00;;;2.83;;
12350;SDS011;6240;51.538;7.696;2023-02-28T00:55:16;3.27;;;2.67;;
12350;SDS011;6240;51.538;7.696;2023-02-28T00:57:43;4.13;;;2.90;;
12350;SDS011;6240;51.538;7.696;2023-02-28T01:00:12;5.97;;;3.00;;
12350;SDS011;6240;51.538;7.696;2023-02-28T01:02:39;3.60;;;3.20;;
12350;SDS011;6240;51.538;7.696;2023-02-28T01:05:08;4.80;;;3.00;;
12350;SDS011;6240;51.538;7.696;2023-02-28T01:07:35;4.90;;;3.13;;
12350;SDS011;6240;51.538;7.696;2023-02-28T01:10:04;4.90;;;2.70;;
12350;SDS011;6240;51.538;7.696;2023-02-28T01:12:31;3.33;;;2.80;;
12350;SDS011;6240;51.538;7.696;2023-02-28T01:14:58;3.93;;;3.00;;
12350;SDS011;6240;51.538;7.696;2023-02-28T01:17:25;4.10;;;3.50;;
12350;SDS011;6240;51.538;7.696;2023-02-28T01:19:53;4.73;;;2.80;;
12350;SDS011;6240;51.538;7.696;2023-02-28T01:22:22;3.77;;;2.80;;
12350;SDS011;6240;51.538;7.696;2023-02-28T01:24:49;7.10;;;2.90;;
12350;SDS011;6240;51.538;7.696;2023-02-28T01:27:16;4.77;;;2.93;;
12350;SDS011;6240;51.538;7.696;2023-02-28T01:29:44;5.03;;;2.83;;
12350;SDS011;6240;51.538;7.696;2023-02-28T01:32:11;5.73;;;2.90;;
12350;SDS011;6240;51.538;7.696;2023-02-28T01:34:38;5.27;;;3.13;;
12350;SDS011;6240;51.538;7.696;2023-02-28T01:37:05;4.47;;;3.10;;
12350;SDS011;6240;51.538;7.696;2023-02-28T01:39:34;4.27;;;3.73;;
12350;SDS011;6240;51.538;7.696;2023-02-28T01:42:01;4.27;;;3.40;;
12350;SDS011;6240;51.538;7.696;2023-02-28T01:47:14;4.17;;;3.20;;
12350;SDS011;6240;51.538;7.696;2023-02-28T01:49:41;5.07;;;2.87;;
12350;SDS011;6240;51.538;7.696;2023-02-28T01:52:09;3.50;;;2.87;;
12350;SDS011;6240;51.538;7.696;2023-02-28T01:54:41;4.23;;;3.27;;
12350;SDS011;6240;51.538;7.696;2023-02-28T01:57:10;4.00;;;3.33;;
12350;SDS011;6240;51.538;7.696;2023-02-28T01:59:40;5.67;;;3.20;;
12350;SDS011;6240;51.538;7.696;2023-02-28T02:02:11;5.43;;;3.20;;
12350;SDS011;6240;51.538;7.696;2023-02-28T02:04:39;4.70;;;3.33;;
12350;SDS011;6240;51.538;7.696;2023-02-28T02:07:06;4.40;;;2.93;;
12350;SDS011;6240;51.538;7.696;2023-02-28T02:09:34;5.30;;;3.00;;
12350;SDS011;6240;51.538;7.696;2023-02-28T02:12:03;5.27;;;3.30;;
12350;SDS011;6240;51.538;7.696;2023-02-28T02:14:42;3.60;;;3.00;;
12350;SDS011;6240;51.538;7.696;2023-02-28T02:17:18;4.97;;;3.23;;
12350;SDS011;6240;51.538;7.696;2023-02-28T02:20:01;5.70;;;3.17;;
12350;SDS011;6240;51.538;7.696;2023-02-28T02:22:45;4.73;;;3.20;;
12350;SDS011;6240;51.538;7.696;2023-02-28T02:25:21;6.13;;;3.33;;
12350;SDS011;6240;51.538;7.696;2023-02-28T02:28:04;4.30;;;2.97;;
12350;SDS011;6240;51.538;7.696;2023-02-28T02:30:43;4.37;;;3.60;;
12350;SDS011;6240;51.538;7.696;2023-02-28T02:36:04;3.70;;;2.60;;
12350;SDS011;6240;51.538;7.696;2023-02-28T02:38:34;4.50;;;2.97;;
12350;SDS011;6240;51.538;7.696;2023-02-28T02:41:06;4.90;;;2.87;;
12350;SDS011;6240;51.538;7.696;2023-02-28T02:43:36;4.57;;;3.13;;
12350;SDS011;6240;51.538;7.696;2023-02-28T02:46:06;6.07;;;3.50;;
12350;SDS011;6240;51.538;7.696;2023-02-28T02:48:35;4.70;;;3.00;;
12350;SDS011;6240;51.538;7.696;2023-02-28T02:51:06;4.07;;;3.27;;
12350;SDS011;6240;51.538;7.696;2023-02-28T02:53:38;4.57;;;3.40;;
12350;SDS011;6240;51.538;7.696;2023-02-28T02:56:08;4.27;;;3.03;;
12350;SDS011;6240;51.538;7.696;2023-02-28T02:58:36;3.20;;;2.90;;
12350;SDS011;6240;51.538;7.696;2023-02-28T03:01:07;4.27;;;3.03;;
12350;SDS011;6240;51.538;7.696;2023-02-28T03:03:35;3.63;;;3.13;;
12350;SDS011;6240;51.538;7.696;2023-02-28T03:06:04;5.20;;;3.23;;
12350;SDS011;6240;51.538;7.696;2023-02-28T03:08:34;5.50;;;3.20;;
12350;SDS011;6240;51.538;7.696;2023-02-28T03:11:02;9.30;;;3.50;;
12350;SDS011;6240;51.538;7.696;2023-02-28T03:13:34;5.50;;;3.80;;
12350;SDS011;6240;51.538;7.696;2023-02-28T03:16:09;3.50;;;3.20;;
12350;SDS011;6240;51.538;7.696;2023-02-28T03:18:44;4.07;;;3.33;;
12350;SDS011;6240;51.538;7.696;2023-02-28T03:21:18;3.87;;;3.30;;
12350;SDS011;6240;51.538;7.696;2023-02-28T03:23:51;6.13;;;3.67;;
12350;SDS011;6240;51.538;7.696;2023-02-28T03:26:21;4.03;;;3.20;;
12350;SDS011;6240;51.538;7.696;2023-02-28T03:28:51;5.90;;;3.03;;
12350;SDS011;6240;51.538;7.696;2023-02-28T03:31:20;4.93;;;3.07;;
12350;SDS011;6240;51.538;7.696;2023-02-28T03:33:49;4.40;;;3.10;;
12350;SDS011;6240;51.538;7.696;2023-02-28T03:36:21;3.70;;;3.00;;
12350;SDS011;6240;51.538;7.696;2023-02-28T03:38:50;3.57;;;2.83;;
12350;SDS011;6240;51.538;7.696;2023-02-28T03:41:20;6.30;;;3.63;;
12350;SDS011;6240;51.538;7.696;2023-02-28T03:43:49;4.80;;;3.23;;
12350;SDS011;6240;51.538;7.696;2023-02-28T03:46:18;2.90;;;2.60;;
12350;SDS011;6240;51.538;7.696;2023-02-28T03:48:49;5.13;;;2.80;;
12350;SDS011;6240;51.538;7.696;2023-02-28T03:51:18;4.57;;;3.13;;
12350;SDS011;6240;51.538;7.696;2023-02-28T03:53:49;4.73;;;2.80;;
12350;SDS011;6240;51.538;7.696;2023-02-28T03:56:18;4.00;;;3.27;;
12350;SDS011;6240;51.538;7.696;2023-02-28T03:58:47;5.40;;;3.57;;
12350;SDS011;6240;51.538;7.696;2023-02-28T04:01:16;7.80;;;3.97;;
12350;SDS011;6240;51.538;7.696;2023-02-28T04:03:47;4.03;;;3.27;;
12350;SDS011;6240;51.538;7.696;2023-02-28T04:06:16;5.57;;;3.87;;
12350;SDS011;6240;51.538;7.696;2023-02-28T04:08:44;5.07;;;3.93;;
12350;SDS011;6240;51.538;7.696;2023-02-28T04:11:16;6.80;;;3.80;;
12350;SDS011;6240;51.538;7.696;2023-02-28T04:13:44;7.17;;;3.67;;
12350;SDS011;6240;51.538;7.696;2023-02-28T04:16:11;5.23;;;3.73;;
12350;SDS011;6240;51.538;7.696;2023-02-28T04:18:38;7.57;;;4.03;;
12350;SDS011;6240;51.538;7.696;2023-02-28T04:21:05;5.23;;;3.63;;
12350;SDS011;6240;51.538;7.696;2023-02-28T04:23:33;5.67;;;3.70;;
12350;SDS011;6240;51.538;7.696;2023-02-28T04:26:00;5.10;;;3.37;;
12350;SDS011;6240;51.538;7.696;2023-02-28T04:28:28;4.90;;;3.57;;
12350;SDS011;6240;51.538;7.696;2023-02-28T04:30:56;4.67;;;3.30;;
12350;SDS011;6240;51.538;7.696;2023-02-28T04:33:23;6.77;;;3.67;;
12350;SDS011;6240;51.538;7.696;2023-02-28T04:35:57;5.00;;;3.40;;
12350;SDS011;6240;51.538;7.696;2023-02-28T04:38:24;5.33;;;3.70;;
12350;SDS011;6240;51.538;7.696;2023-02-28T04:40:51;9.00;;;4.23;;
12350;SDS011;6240;51.538;7.696;2023-02-28T04:43:19;6.03;;;3.50;;
12350;SDS011;6240;51.538;7.696;2023-02-28T04:45:47;7.50;;;3.77;;
12350;SDS011;6240;51.538;7.696;2023-02-28T04:48:14;10.07;;;3.80;;
12350;SDS011;6240;51.538;7.696;2023-02-28T04:50:42;10.27;;;3.93;;
12350;SDS011;6240;51.538;7.696;2023-02-28T04:53:09;5.67;;;3.60;;
12350;SDS011;6240;51.538;7.696;2023-02-28T04:55:36;9.67;;;3.20;;
12350;SDS011;6240;51.538;7.696;2023-02-28T04:58:05;8.07;;;3.87;;
12350;SDS011;6240;51.538;7.696;2023-02-28T05:00:32;4.07;;;3.00;;
12350;SDS011;6240;51.538;7.696;2023-02-28T05:03:01;4.33;;;3.20;;
12350;SDS011;6240;51.538;7.696;2023-02-28T05:05:28;6.57;;;3.90;;
12350;SDS011;6240;51.538;7.696;2023-02-28T05:07:55;4.50;;;3.60;;
12350;SDS011;6240;51.538;7.696;2023-02-28T05:10:23;6.40;;;3.43;;
12350;SDS011;6240;51.538;7.696;2023-02-28T05:12:50;6.20;;;4.13;;
12350;SDS011;6240;51.538;7.696;2023-02-28T05:15:17;5.87;;;3.93;;
12350;SDS011;6240;51.538;7.696;2023-02-28T05:17:44;5.33;;;3.83;;
12350;SDS011;6240;51.538;7.696;2023-02-28T05:20:13;5.57;;;3.83;;
12350;SDS011;6240;51.538;7.696;2023-02-28T05:22:40;6.53;;;4.00;;
12350;SDS011;6240;51.538;7.696;2023-02-28T05:25:08;7.03;;;3.80;;
12350;SDS011;6240;51.538;7.696;2023-02-28T05:27:37;4.67;;;3.60;;
12350;SDS011;6240;51.538;7.696;2023-02-28T05:30:05;5.80;;;3.90;;
12350;SDS011;6240;51.538;7.696;2023-02-28T05:32:35;7.20;;;3.60;;
12350;SDS011;6240;51.538;7.696;2023-02-28T05:35:03;5.97;;;4.00;;
12350;SDS011;6240;51.538;7.696;2023-02-28T05:37:31;5.93;;;3.80;;
12350;SDS011;6240;51.538;7.696;2023-02-28T05:39:59;5.40;;;3.63;;
12350;SDS011;6240;51.538;7.696;2023-02-28T05:42:26;4.57;;;3.57;;
12350;SDS011;6240;51.538;7.696;2023-02-28T05:44:53;6.90;;;3.57;;
12350;SDS011;6240;51.538;7.696;2023-02-28T05:47:20;5.93;;;3.27;;
12350;SDS011;6240;51.538;7.696;2023-02-28T05:49:47;6.40;;;3.90;;
12350;SDS011;6240;51.538;7.696;2023-02-28T05:52:16;5.33;;;3.40;;
12350;SDS011;6240;51.538;7.696;2023-02-28T05:54:47;5.50;;;3.60;;
12350;SDS011;6240;51.538;7.696;2023-02-28T05:57:14;6.27;;;3.47;;
12350;SDS011;6240;51.538;7.696;2023-02-28T05:59:42;5.77;;;3.57;;
12350;SDS011;6240;51.538;7.696;2023-02-28T06:02:10;4.57;;;4.03;;
12350;SDS011;6240;51.538;7.696;2023-02-28T06:04:37;5.73;;;3.70;;
12350;SDS011;6240;51.538;7.696;2023-02-28T06:07:06;7.03;;;3.87;;
12350;SDS011;6240;51.538;7.696;2023-02-28T06:09:33;7.30;;;5.10;;
12350;SDS011;6240;51.538;7.696;2023-02-28T06:12:02;12.10;;;5.43;;
12350;SDS011;6240;51.538;7.696;2023-02-28T06:14:31;5.80;;;3.50;;
12350;SDS011;6240;51.538;7.696;2023-02-28T06:17:00;4.77;;;3.53;;
12350;SDS011;6240;51.538;7.696;2023-02-28T06:19:30;5.43;;;3.90;;
12350;SDS011;6240;51.538;7.696;2023-02-28T06:22:00;6.47;;;4.20;;
12350;SDS011;6240;51.538;7.696;2023-02-28T06:24:29;13.33;;;4.70;;
12350;SDS011;6240;51.538;7.696;2023-02-28T06:26:57;6.63;;;4.27;;
12350;SDS011;6240;51.538;7.696;2023-02-28T06:29:31;5.70;;;3.93;;
12350;SDS011;6240;51.538;7.696;2023-02-28T06:31:58;7.23;;;4.77;;
12350;SDS011;6240;51.538;7.696;2023-02-28T06:34:25;8.90;;;5.63;;
12350;SDS011;6240;51.538;7.696;2023-02-28T06:36:57;8.30;;;4.87;;
12350;SDS011;6240;51.538;7.696;2023-02-28T06:39:27;12.27;;;5.30;;
12350;SDS011;6240;51.538;7.696;2023-02-28T06:41:55;7.27;;;4.50;;
12350;SDS011;6240;51.538;7.696;2023-02-28T06:44:24;7.47;;;4.17;;
12350;SDS011;6240;51.538;7.696;2023-02-28T06:46:54;5.67;;;4.43;;
12350;SDS011;6240;51.538;7.696;2023-02-28T06:49:21;5.80;;;4.43;;
12350;SDS011;6240;51.538;7.696;2023-02-28T06:51:48;7.07;;;4.80;;
12350;SDS011;6240;51.538;7.696;2023-02-28T06:54:15;8.90;;;4.53;;
12350;SDS011;6240;51.538;7.696;2023-02-28T06:56:42;6.93;;;4.60;;
12350;SDS011;6240;51.538;7.696;2023-02-28T06:59:09;4.53;;;3.77;;
12350;SDS011;6240;51.538;7.696;2023-02-28T07:01:37;6.10;;;3.87;;
12350;SDS011;6240;51.538;7.696;2023-02-28T07:04:05;9.37;;;4.53;;
12350;SDS011;6240;51.538;7.696;2023-02-28T07:06:33;8.53;;;4.10;;
12350;SDS011;6240;51.538;7.696;2023-02-28T07:09:00;13.10;;;5.73;;
12350;SDS011;6240;51.538;7.696;2023-02-28T07:11:27;11.10;;;5.13;;
12350;SDS011;6240;51.538;7.696;2023-02-28T07:13:55;8.53;;;4.93;;
12350;SDS011;6240;51.538;7.696;2023-02-28T07:16:23;5.37;;;3.90;;
12350;SDS011;6240;51.538;7.696;2023-02-28T07:18:52;9.93;;;4.03;;
12350;SDS011;6240;51.538;7.696;2023-02-28T07:21:21;5.03;;;3.43;;
12350;SDS011;6240;51.538;7.696;2023-02-28T07:23:49;5.20;;;3.33;;
12350;SDS011;6240;51.538;7.696;2023-02-28T07:26:17;5.77;;;3.63;;
12350;SDS011;6240;51.538;7.696;2023-02-28T07:28:45;5.77;;;3.57;;
12350;SDS011;6240;51.538;7.696;2023-02-28T07:31:13;6.83;;;2.87;;
12350;SDS011;6240;51.538;7.696;2023-02-28T07:33:40;3.73;;;3.13;;
12350;SDS011;6240;51.538;7.696;2023-02-28T07:36:08;4.50;;;3.83;;
12350;SDS011;6240;51.538;7.696;2023-02-28T07:38:41;3.37;;;2.60;;
12350;SDS011;6240;51.538;7.696;2023-02-28T07:41:10;6.97;;;3.10;;
12350;SDS011;6240;51.538;7.696;2023-02-28T07:43:38;4.70;;;2.67;;
12350;SDS011;6240;51.538;7.696;2023-02-28T07:46:06;2.87;;;2.47;;
12350;SDS011;6240;51.538;7.696;2023-02-28T07:48:34;5.63;;;2.93;;
12350;SDS011;6240;51.538;7.696;2023-02-28T07:51:01;6.07;;;2.90;;
12350;SDS011;6240;51.538;7.696;2023-02-28T07:53:29;4.80;;;3.00;;
12350;SDS011;6240;51.538;7.696;2023-02-28T07:55:58;5.20;;;2.63;;
12350;SDS011;6240;51.538;7.696;2023-02-28T07:58:26;3.30;;;2.90;;
12350;SDS011;6240;51.538;7.696;2023-02-28T08:00:54;3.17;;;2.87;;
12350;SDS011;6240;51.538;7.696;2023-02-28T08:03:21;3.30;;;2.87;;
12350;SDS011;6240;51.538;7.696;2023-02-28T08:05:48;3.27;;;2.50;;
12350;SDS011;6240;51.538;7.696;2023-02-28T08:08:17;6.67;;;3.93;;
12350;SDS011;6240;51.538;7.696;2023-02-28T08:10:44;4.97;;;3.10;;
12350;SDS011;6240;51.538;7.696;2023-02-28T08:13:13;4.30;;;2.97;;
12350;SDS011;6240;51.538;7.696;2023-02-28T08:15:42;5.57;;;3.47;;
12350;SDS011;6240;51.538;7.696;2023-02-28T08:18:10;5.60;;;3.50;;
12350;SDS011;6240;51.538;7.696;2023-02-28T08:20:38;7.17;;;3.50;;
12350;SDS011;6240;51.538;7.696;2023-02-28T08:23:05;5.13;;;2.83;;
12350;SDS011;6240;51.538;7.696;2023-02-28T08:25:32;8.50;;;3.67;;
12350;SDS011;6240;51.538;7.696;2023-02-28T08:27:59;3.80;;;3.20;;
12350;SDS011;6240;51.538;7.696;2023-02-28T08:30:28;5.20;;;3.43;;
12350;SDS011;6240;51.538;7.696;2023-02-28T08:32:55;6.50;;;3.17;;
12350;SDS011;6240;51.538;7.696;2023-02-28T08:35:22;8.43;;;5.57;;
12350;SDS011;6240;51.538;7.696;2023-02-28T08:37:49;5.33;;;3.50;;
12350;SDS011;6240;51.538;7.696;2023-02-28T08:40:16;2.97;;;2.67;;
12350;SDS011;6240;51.538;7.696;2023-02-28T08:42:44;4.50;;;2.80;;
12350;SDS011;6240;51.538;7.696;2023-02-28T08:45:11;5.00;;;2.90;;
12350;SDS011;6240;51.538;7.696;2023-02-28T08:47:40;5.87;;;2.90;;
12350;SDS011;6240;51.538;7.696;2023-02-28T08:50:07;7.87;;;3.33;;
12350;SDS011;6240;51.538;7.696;2023-02-28T08:52:35;4.83;;;2.40;;
12350;SDS011;6240;51.538;7.696;2023-02-28T08:55:04;6.20;;;2.90;;
12350;SDS011;6240;51.538;7.696;2023-02-28T08:57:31;4.60;;;3.23;;
12350;SDS011;6240;51.538;7.696;2023-02-28T08:59:59;4.47;;;3.47;;
12350;SDS011;6240;51.538;7.696;2023-02-28T09:02:29;8.30;;;2.57;;
12350;SDS011;6240;51.538;7.696;2023-02-28T09:04:57;3.57;;;2.70;;
12350;SDS011;6240;51.538;7.696;2023-02-28T09:07:24;3.67;;;2.57;;
12350;SDS011;6240;51.538;7.696;2023-02-28T09:09:52;4.43;;;2.67;;
12350;SDS011;6240;51.538;7.696;2023-02-28T09:12:23;7.17;;;2.70;;
12350;SDS011;6240;51.538;7.696;2023-02-28T09:14:50;4.70;;;2.93;;
12350;SDS011;6240;51.538;7.696;2023-02-28T09:17:18;3.33;;;2.50;;
12350;SDS011;6240;51.538;7.696;2023-02-28T09:19:47;4.03;;;2.93;;
12350;SDS011;6240;51.538;7.696;2023-02-28T09:22:15;3.80;;;2.40;;
12350;SDS011;6240;51.538;7.696;2023-02-28T09:24:43;8.27;;;2.60;;
12350;SDS011;6240;51.538;7.696;2023-02-28T09:27:10;3.87;;;2.50;;
12350;SDS011;6240;51.538;7.696;2023-02-28T09:29:38;6.37;;;2.30;;
12350;SDS011;6240;51.538;7.696;2023-02-28T09:32:05;3.73;;;2.57;;
12350;SDS011;6240;51.538;7.696;2023-02-28T09:34:32;4.33;;;2.17;;
12350;SDS011;6240;51.538;7.696;2023-02-28T09:37:01;3.90;;;2.03;;
12350;SDS011;6240;51.538;7.696;2023-02-28T09:39:31;3.73;;;2.30;;
12350;SDS011;6240;51.538;7.696;2023-02-28T09:41:59;6.00;;;2.33;;
12350;SDS011;6240;51.538;7.696;2023-02-28T09:44:29;2.93;;;1.90;;
12350;SDS011;6240;51.538;7.696;2023-02-28T09:46:59;2.50;;;2.20;;
12350;SDS011;6240;51.538;7.696;2023-02-28T09:49:30;4.57;;;2.20;;
12350;SDS011;6240;51.538;7.696;2023-02-28T09:52:01;3.60;;;2.23;;
12350;SDS011;6240;51.538;7.696;2023-02-28T09:54:29;3.43;;;2.30;;
12350;SDS011;6240;51.538;7.696;2023-02-28T09:56:58;3.50;;;2.47;;
12350;SDS011;6240;51.538;7.696;2023-02-28T09:59:33;4.83;;;2.40;;
12350;SDS011;6240;51.538;7.696;2023-02-28T10:02:04;4.60;;;2.00;;
12350;SDS011;6240;51.538;7.696;2023-02-28T10:04:35;3.53;;;2.00;;
12350;SDS011;6240;51.538;7.696;2023-02-28T10:07:05;4.57;;;2.23;;
12350;SDS011;6240;51.538;7.696;2023-02-28T10:09:45;4.80;;;2.07;;
12350;SDS011;6240;51.538;7.696;2023-02-28T10:12:19;2.40;;;1.97;;
12350;SDS011;6240;51.538;7.696;2023-02-28T10:14:49;3.23;;;2.20;;
12350;SDS011;6240;51.538;7.696;2023-02-28T10:17:19;5.20;;;2.10;;
12350;SDS011;6240;51.538;7.696;2023-02-28T10:19:50;3.87;;;2.00;;
12350;SDS011;6240;51.538;7.696;2023-02-28T10:22:22;2.67;;;2.00;;
12350;SDS011;6240;51.538;7.696;2023-02-28T10:24:52;4.57;;;1.80;;
12350;SDS011;6240;51.538;7.696;2023-02-28T10:27:23;2.60;;;1.90;;
12350;SDS011;6240;51.538;7.696;2023-02-28T10:29:51;6.57;;;2.30;;
12350;SDS011;6240;51.538;7.696;2023-02-28T10:32:20;2.23;;;1.80;;
12350;SDS011;6240;51.538;7.696;2023-02-28T10:34:50;2.30;;;2.03;;
12350;SDS011;6240;51.538;7.696;2023-02-28T10:37:18;4.07;;;2.03;;
12350;SDS011;6240;51.538;7.696;2023-02-28T10:39:46;4.80;;;2.47;;
12350;SDS011;6240;51.538;7.696;2023-02-28T10:42:24;3.63;;;1.90;;
12350;SDS011;6240;51.538;7.696;2023-02-28T10:47:37;2.20;;;1.77;;
12350;SDS011;6240;51.538;7.696;2023-02-28T10:50:26;2.33;;;1.90;;
12350;SDS011;6240;51.538;7.696;2023-02-28T10:52:53;4.13;;;1.87;;
12350;SDS011;6240;51.538;7.696;2023-02-28T10:55:22;4.00;;;2.17;;
12350;SDS011;6240;51.538;7.696;2023-02-28T10:57:51;3.93;;;1.90;;
12350;SDS011;6240;51.538;7.696;2023-02-28T11:00:19;2.10;;;1.83;;
12350;SDS011;6240;51.538;7.696;2023-02-28T11:02:47;2.53;;;1.63;;
12350;SDS011;6240;51.538;7.696;2023-02-28T11:05:28;1.60;;;1.47;;
12350;SDS011;6240;51.538;7.696;2023-02-28T11:07:56;4.40;;;1.77;;
12350;SDS011;6240;51.538;7.696;2023-02-28T11:10:37;2.07;;;1.73;;
12350;SDS011;6240;51.538;7.696;2023-02-28T11:13:06;2.57;;;2.20;;
12350;SDS011;6240;51.538;7.696;2023-02-28T11:15:34;3.70;;;2.20;;
12350;SDS011;6240;51.538;7.696;2023-02-28T11:18:04;4.20;;;2.20;;
12350;SDS011;6240;51.538;7.696;2023-02-28T11:20:33;2.23;;;1.87;;
12350;SDS011;6240;51.538;7.696;2023-02-28T11:23:01;6.87;;;1.97;;
12350;SDS011;6240;51.538;7.696;2023-02-28T11:25:30;2.00;;;1.73;;
12350;SDS011;6240;51.538;7.696;2023-02-28T11:27:58;2.20;;;2.00;;
12350;SDS011;6240;51.538;7.696;2023-02-28T11:30:37;3.43;;;2.03;;
12350;SDS011;6240;51.538;7.696;2023-02-28T11:33:23;3.83;;;2.33;;
12350;SDS011;6240;51.538;7.696;2023-02-28T11:35:51;4.90;;;2.00;;
12350;SDS011;6240;51.538;7.696;2023-02-28T11:38:18;3.43;;;2.00;;
12350;SDS011;6240;51.538;7.696;2023-02-28T11:40:46;1.80;;;1.70;;
12350;SDS011;6240;51.538;7.696;2023-02-28T11:43:19;2.67;;;2.00;;
12350;SDS011;6240;51.538;7.696;2023-02-28T11:45:53;3.83;;;2.30;;
12350;SDS011;6240;51.538;7.696;2023-02-28T11:48:23;2.90;;;1.80;;
12350;SDS011;6240;51.538;7.696;2023-02-28T11:50:59;3.70;;;1.90;;
12350;SDS011;6240;51.538;7.696;2023-02-28T11:53:34;3.93;;;2.17;;
12350;SDS011;6240;51.538;7.696;2023-02-28T11:56:06;5.47;;;2.83;;
12350;SDS011;6240;51.538;7.696;2023-02-28T11:58:37;2.53;;;2.13;;
12350;SDS011;6240;51.538;7.696;2023-02-28T12:01:18;2.23;;;1.93;;
12350;SDS011;6240;51.538;7.696;2023-02-28T12:03:50;5.13;;;2.30;;
12350;SDS011;6240;51.538;7.696;2023-02-28T12:06:22;2.87;;;2.40;;
12350;SDS011;6240;51.538;7.696;2023-02-28T12:08:58;2.60;;;2.30;;
12350;SDS011;6240;51.538;7.696;2023-02-28T12:11:33;4.23;;;2.07;;
12350;SDS011;6240;51.538;7.696;2023-02-28T12:14:07;3.23;;;2.10;;
12350;SDS011;6240;51.538;7.696;2023-02-28T12:19:45;3.07;;;2.00;;
12350;SDS011;6240;51.538;7.696;2023-02-28T12:27:59;4.50;;;2.10;;
12350;SDS011;6240;51.538;7.696;2023-02-28T12:30:27;2.90;;;2.00;;
12350;SDS011;6240;51.538;7.696;2023-02-28T12:32:56;5.93;;;2.33;;
12350;SDS011;6240;51.538;7.696;2023-02-28T12:35:27;1.97;;;1.80;;
12350;SDS011;6240;51.538;7.696;2023-02-28T12:38:01;4.17;;;2.03;;
12350;SDS011;6240;51.538;7.696;2023-02-28T12:40:32;4.67;;;2.30;;
12350;SDS011;6240;51.538;7.696;2023-02-28T12:43:10;2.40;;;2.10;;
12350;SDS011;6240;51.538;7.696;2023-02-28T12:45:40;3.10;;;2.33;;
12350;SDS011;6240;51.538;7.696;2023-02-28T12:48:10;3.43;;;2.20;;
12350;SDS011;6240;51.538;7.696;2023-02-28T12:50:41;3.03;;;2.07;;
12350;SDS011;6240;51.538;7.696;2023-02-28T12:53:09;2.63;;;2.17;;
12350;SDS011;6240;51.538;7.696;2023-02-28T12:55:40;3.90;;;2.30;;
12350;SDS011;6240;51.538;7.696;2023-02-28T12:58:10;2.30;;;2.10;;
12350;SDS011;6240;51.538;7.696;2023-02-28T13:00:45;3.27;;;2.30;;
12350;SDS011;6240;51.538;7.696;2023-02-28T13:03:32;4.20;;;2.27;;
12350;SDS011;6240;51.538;7.696;2023-02-28T13:06:07;2.27;;;1.97;;
12350;SDS011;6240;51.538;7.696;2023-02-28T13:11:26;2.60;;;2.07;;
12350;SDS011;6240;51.538;7.696;2023-02-28T13:14:01;1.93;;;1.80;;
12350;SDS011;6240;51.538;7.696;2023-02-28T13:16:32;4.67;;;2.20;;
12350;SDS011;6240;51.538;7.696;2023-02-28T13:19:16;3.53;;;2.40;;
12350;SDS011;6240;51.538;7.696;2023-02-28T13:21:47;5.40;;;2.47;;
12350;SDS011;6240;51.538;7.696;2023-02-28T13:27:20;4.37;;;2.40;;
12350;SDS011;6240;51.538;7.696;2023-02-28T13:29:51;2.67;;;2.30;;
12350;SDS011;6240;51.538;7.696;2023-02-28T13:40:39;4.23;;;2.50;;
12350;SDS011;6240;51.538;7.696;2023-02-28T13:43:07;3.00;;;2.40;;
12350;SDS011;6240;51.538;7.696;2023-02-28T13:45:35;4.47;;;2.30;;
12350;SDS011;6240;51.538;7.696;2023-02-28T13:48:15;3.17;;;2.23;;
12350;SDS011;6240;51.538;7.696;2023-02-28T13:50:43;4.17;;;2.27;;
12350;SDS011;6240;51.538;7.696;2023-02-28T13:56:05;2.83;;;2.43;;
12350;SDS011;6240;51.538;7.696;2023-02-28T13:58:42;2.27;;;2.07;;
12350;SDS011;6240;51.538;7.696;2023-02-28T14:01:21;2.83;;;2.37;;
12350;SDS011;6240;51.538;7.696;2023-02-28T14:06:36;3.23;;;2.70;;
12350;SDS011;6240;51.538;7.696;2023-02-28T14:09:06;2.77;;;2.50;;
12350;SDS011;6240;51.538;7.696;2023-02-28T14:11:45;2.70;;;2.50;;
12350;SDS011;6240;51.538;7.696;2023-02-28T14:16:55;3.63;;;2.83;;
12350;SDS011;6240;51.538;7.696;2023-02-28T14:19:25;2.73;;;2.37;;
12350;SDS011;6240;51.538;7.696;2023-02-28T14:21:58;3.10;;;2.30;;
12350;SDS011;6240;51.538;7.696;2023-02-28T14:24:34;3.20;;;2.33;;
12350;SDS011;6240;51.538;7.696;2023-02-28T14:27:14;3.70;;;2.73;;
12350;SDS011;6240;51.538;7.696;2023-02-28T14:32:31;3.90;;;2.53;;
12350;SDS011;6240;51.538;7.696;2023-02-28T14:35:02;3.57;;;2.43;;
12350;SDS011;6240;51.538;7.696;2023-02-28T14:37:38;6.13;;;2.87;;
12350;SDS011;6240;51.538;7.696;2023-02-28T14:40:12;4.10;;;2.60;;
12350;SDS011;6240;51.538;7.696;2023-02-28T14:42:46;2.87;;;2.60;;
12350;SDS011;6240;51.538;7.696;2023-02-28T14:45:17;4.57;;;4.10;;
12350;SDS011;6240;51.538;7.696;2023-02-28T14:47:46;4.40;;;3.13;;
12350;SDS011;6240;51.538;7.696;2023-02-28T14:50:18;3.10;;;2.80;;
12350;SDS011;6240;51.538;7.696;2023-02-28T14:52:47;3.00;;;2.70;;
12350;SDS011;6240;51.538;7.696;2023-02-28T14:55:16;4.83;;;2.50;;
12350;SDS011;6240;51.538;7.696;2023-02-28T14:57:54;2.83;;;2.40;;
12350;SDS011;6240;51.538;7.696;2023-02-28T15:00:23;3.83;;;2.77;;
12350;SDS011;6240;51.538;7.696;2023-02-28T15:02:51;3.07;;;2.70;;
12350;SDS011;6240;51.538;7.696;2023-02-28T15:05:21;3.10;;;2.80;;
12350;SDS011;6240;51.538;7.696;2023-02-28T15:08:00;2.97;;;2.67;;
12350;SDS011;6240;51.538;7.696;2023-02-28T15:10:28;4.73;;;2.40;;
12350;SDS011;6240;51.538;7.696;2023-02-28T15:16:04;4.27;;;2.63;;
12350;SDS011;6240;51.538;7.696;2023-02-28T15:18:41;3.90;;;2.50;;
12350;SDS011;6240;51.538;7.696;2023-02-28T15:21:13;3.00;;;2.53;;
12350;SDS011;6240;51.538;7.696;2023-02-28T15:23:48;2.80;;;2.40;;
12350;SDS011;6240;51.538;7.696;2023-02-28T15:26:17;4.30;;;2.40;;
12350;SDS011;6240;51.538;7.696;2023-02-28T15:28:47;3.87;;;2.90;;
12350;SDS011;6240;51.538;7.696;2023-02-28T15:31:21;3.00;;;2.57;;
12350;SDS011;6240;51.538;7.696;2023-02-28T15:33:52;2.93;;;2.50;;
12350;SDS011;6240;51.538;7.696;2023-02-28T15:36:25;2.40;;;2.20;;
12350;SDS011;6240;51.538;7.696;2023-02-28T15:38:53;2.57;;;2.37;;
12350;SDS011;6240;51.538;7.696;2023-02-28T15:41:24;3.97;;;2.13;;
12350;SDS011;6240;51.538;7.696;2023-02-28T15:46:36;3.00;;;2.20;;
12350;SDS011;6240;51.538;7.696;2023-02-28T15:49:03;3.43;;;2.60;;
12350;SDS011;6240;51.538;7.696;2023-02-28T15:51:32;3.80;;;2.67;;
12350;SDS011;6240;51.538;7.696;2023-02-28T15:54:06;4.97;;;2.73;;
12350;SDS011;6240;51.538;7.696;2023-02-28T15:56:37;2.43;;;2.20;;
12350;SDS011;6240;51.538;7.696;2023-02-28T15:59:05;3.30;;;2.70;;
12350;SDS011;6240;51.538;7.696;2023-02-28T16:01:33;4.37;;;2.43;;
12350;SDS011;6240;51.538;7.696;2023-02-28T16:04:04;3.03;;;2.73;;